YM Initiative — A8HX4 — position and weather

sailwx.info

Track history (hours):
 
Tides and Currents Weather Stations Pressure Air Temp Water Temp Dewpoint Dewpoint Depression Visibility Wind Speed Wind Dir Waves Ship Positions

YM Initiative

Last reported at 2014-Aug-30 18:33 UTC. Time now 2014-Sep-01 11:38 UTC.
Position N 01°14' E 104°01'.

Length 173 m; draft 7.7 m.

Type: Cargo ship. MMSI: 635961368.

Date/timePositionNaut miles runAvg speedWind from/ knotsBaromVisibWave heightAir tempDewpointWater temp
2014-Aug-30 18:33N 01°14' E 104°01'1212.3
2014-Aug-30 17:32N 01°12' E 103°49'5 5.4
2014-Aug-30 16:33N 01°16' E 103°47'0 0.0
2014-Aug-30 15:28N 01°16' E 103°47'0 0.0
2014-Aug-30 14:31N 01°16' E 103°47'0 0.0
2014-Aug-30 13:31N 01°16' E 103°47'0 0.0
2014-Aug-30 12:31N 01°16' E 103°47'0 0.0
2014-Aug-30 11:28N 01°16' E 103°47'0 0.0
2014-Aug-30 10:28N 01°16' E 103°47'0 0.0
2014-Aug-30 09:28N 01°16' E 103°47'0 0.0
2014-Aug-30 08:19N 01°16' E 103°47'0 0.0
2014-Aug-30 07:31N 01°16' E 103°47'0 0.0
2014-Aug-30 06:31N 01°16' E 103°47'0 0.0
2014-Aug-30 05:31N 01°16' E 103°47'0 0.0
2014-Aug-30 04:28N 01°16' E 103°47'0 0.0
2014-Aug-30 03:31N 01°16' E 103°47'1 0.6
2014-Aug-30 02:33N 01°16' E 103°47'4 4.1
2014-Aug-30 01:33N 01°13' E 103°49'9 9.4
2014-Aug-30 00:33N 01°15' E 103°58'  
2014-Aug-25 08:25N 01°15' E 104°05'1315.5
2014-Aug-25 07:33N 01°11' E 103°52'  
2014-Aug-23 03:33N 01°16' E 103°46'0 0.0
2014-Aug-23 02:33N 01°16' E 103°46'0 0.0
2014-Aug-23 01:30N 01°16' E 103°46'0 0.0
2014-Aug-23 00:33N 01°16' E 103°46'0 0.0
2014-Aug-22 23:33N 01°16' E 103°46'0 0.0
2014-Aug-22 22:33N 01°16' E 103°46'0 0.0
2014-Aug-22 21:24N 01°16' E 103°46'0 0.0
2014-Aug-22 20:33N 01°16' E 103°46'0 0.0
2014-Aug-22 19:33N 01°16' E 103°46'0 0.0
2014-Aug-22 18:33N 01°16' E 103°46'0 0.0
2014-Aug-22 17:33N 01°16' E 103°46'0 0.0
2014-Aug-22 16:33N 01°16' E 103°46'0 0.0
2014-Aug-22 15:33N 01°16' E 103°46'0 0.0
2014-Aug-22 14:33N 01°16' E 103°46'0 0.0
2014-Aug-22 13:33N 01°16' E 103°46'0 0.0
2014-Aug-22 12:33N 01°16' E 103°46'0 0.0
2014-Aug-22 11:33N 01°16' E 103°46'0 0.0
2014-Aug-22 10:30N 01°16' E 103°46'0 0.0
2014-Aug-22 09:32N 01°16' E 103°46'0 0.0
2014-Aug-22 08:32N 01°16' E 103°46'2 1.8
2014-Aug-22 07:33N 01°15' E 103°47'2 1.8
2014-Aug-22 06:33N 01°13' E 103°48'6 5.0
2014-Aug-22 05:26N 01°14' E 103°53'0 0.0
2014-Aug-22 04:29N 01°14' E 103°53'0 0.1
2014-Aug-22 03:26N 01°14' E 103°53'3 3.2
2014-Aug-22 02:33N 01°14' E 103°56'7 7.0
2014-Aug-22 01:33N 01°16' E 104°03'  
Track history (hours):
 
Tides and Currents Weather Stations Pressure Air Temp Water Temp Dewpoint Dewpoint Depression Visibility Wind Speed Wind Dir Waves Ship Positions

YM Initiative

Last reported at 2014-Aug-30 18:33 UTC. Time now 2014-Sep-01 11:38 UTC.
Position N 01°14' E 104°01'.

Length 173 m; draft 7.7 m.

Type: Cargo ship. MMSI: 635961368.

Date/timePositionNaut miles runAvg speedWind from/ knotsBaromVisibWave heightAir tempDewpointWater temp
2014-Aug-30 18:33N 01°14' E 104°01'1212.3
2014-Aug-30 17:32N 01°12' E 103°49'5 5.4
2014-Aug-30 16:33N 01°16' E 103°47'0 0.0
2014-Aug-30 15:28N 01°16' E 103°47'0 0.0
2014-Aug-30 14:31N 01°16' E 103°47'0 0.0
2014-Aug-30 13:31N 01°16' E 103°47'0 0.0
2014-Aug-30 12:31N 01°16' E 103°47'0 0.0
2014-Aug-30 11:28N 01°16' E 103°47'0 0.0
2014-Aug-30 10:28N 01°16' E 103°47'0 0.0
2014-Aug-30 09:28N 01°16' E 103°47'0 0.0
2014-Aug-30 08:19N 01°16' E 103°47'0 0.0
2014-Aug-30 07:31N 01°16' E 103°47'0 0.0
2014-Aug-30 06:31N 01°16' E 103°47'0 0.0
2014-Aug-30 05:31N 01°16' E 103°47'0 0.0
2014-Aug-30 04:28N 01°16' E 103°47'0 0.0
2014-Aug-30 03:31N 01°16' E 103°47'1 0.6
2014-Aug-30 02:33N 01°16' E 103°47'4 4.1
2014-Aug-30 01:33N 01°13' E 103°49'9 9.4
2014-Aug-30 00:33N 01°15' E 103°58'  
2014-Aug-25 08:25N 01°15' E 104°05'1315.5
2014-Aug-25 07:33N 01°11' E 103°52'  
2014-Aug-23 03:33N 01°16' E 103°46'0 0.0
2014-Aug-23 02:33N 01°16' E 103°46'0 0.0
2014-Aug-23 01:30N 01°16' E 103°46'0 0.0
2014-Aug-23 00:33N 01°16' E 103°46'0 0.0
2014-Aug-22 23:33N 01°16' E 103°46'0 0.0
2014-Aug-22 22:33N 01°16' E 103°46'0 0.0
2014-Aug-22 21:24N 01°16' E 103°46'0 0.0
2014-Aug-22 20:33N 01°16' E 103°46'0 0.0
2014-Aug-22 19:33N 01°16' E 103°46'0 0.0
2014-Aug-22 18:33N 01°16' E 103°46'0 0.0
2014-Aug-22 17:33N 01°16' E 103°46'0 0.0
2014-Aug-22 16:33N 01°16' E 103°46'0 0.0
2014-Aug-22 15:33N 01°16' E 103°46'0 0.0
2014-Aug-22 14:33N 01°16' E 103°46'0 0.0
2014-Aug-22 13:33N 01°16' E 103°46'0 0.0
2014-Aug-22 12:33N 01°16' E 103°46'0 0.0
2014-Aug-22 11:33N 01°16' E 103°46'0 0.0
2014-Aug-22 10:30N 01°16' E 103°46'0 0.0
2014-Aug-22 09:32N 01°16' E 103°46'0 0.0
2014-Aug-22 08:32N 01°16' E 103°46'2 1.8
2014-Aug-22 07:33N 01°15' E 103°47'2 1.8
2014-Aug-22 06:33N 01°13' E 103°48'6 5.0
2014-Aug-22 05:26N 01°14' E 103°53'0 0.0
2014-Aug-22 04:29N 01°14' E 103°53'0 0.1
2014-Aug-22 03:26N 01°14' E 103°53'3 3.2
2014-Aug-22 02:33N 01°14' E 103°56'7 7.0
2014-Aug-22 01:33N 01°16' E 104°03'  

Dump ship's entire track history